createdAt,value
2019-02-12T00:02:23.288Z,-0.68
2019-02-12T00:04:53.268Z,-0.69
2019-02-12T00:07:23.083Z,-0.68
2019-02-12T00:10:11.770Z,-0.68
2019-02-12T00:13:00.327Z,-0.69
2019-02-12T00:15:35.739Z,-0.72
2019-02-12T00:18:05.506Z,-0.72
2019-02-12T00:23:24.059Z,-0.74
2019-02-12T00:25:56.882Z,-0.76
2019-02-12T00:28:28.658Z,-0.76
2019-02-12T00:34:02.897Z,-0.77
2019-02-12T00:42:16.008Z,-0.79
2019-02-12T00:44:56.483Z,-0.78
2019-02-12T00:47:26.084Z,-0.79
2019-02-12T00:49:56.011Z,-0.81
2019-02-12T00:52:27.218Z,-0.83
2019-02-12T00:57:51.278Z,-0.88
2019-02-12T01:00:22.998Z,-0.89
2019-02-12T01:02:53.063Z,-0.89
2019-02-12T01:05:25.753Z,-0.93
2019-02-12T01:07:55.301Z,-0.93
2019-02-12T01:10:25.016Z,-0.93
2019-02-12T01:12:54.576Z,-0.92
2019-02-12T01:15:24.378Z,-0.91
2019-02-12T01:17:56.327Z,-0.91
2019-02-12T01:20:25.753Z,-0.89
2019-02-12T01:22:55.640Z,-0.86
2019-02-12T01:25:25.245Z,-0.86
2019-02-12T01:27:57.424Z,-0.85
2019-02-12T01:30:26.892Z,-0.85
2019-02-12T01:32:56.478Z,-0.87
2019-02-12T01:35:27.070Z,-0.86
2019-02-12T01:38:17.045Z,-0.86
2019-02-12T01:40:59.944Z,-0.86
2019-02-12T01:46:15.391Z,-0.83
2019-02-12T01:52:05.520Z,-0.78
2019-02-12T01:54:47.278Z,-0.77
2019-02-12T01:57:41.049Z,-0.77
2019-02-12T02:00:15.832Z,-0.77
2019-02-12T02:03:23.786Z,-0.76
2019-02-12T02:08:37.100Z,-0.76
2019-02-12T02:11:07.214Z,-0.78
2019-02-12T02:13:36.978Z,-0.79
2019-02-12T02:16:06.925Z,-0.78
2019-02-12T02:18:36.608Z,-0.76
2019-02-12T02:21:06.133Z,-0.77
2019-02-12T02:26:11.217Z,-0.78
2019-02-12T02:31:15.882Z,-0.79
2019-02-12T02:36:26.614Z,-0.78
2019-02-12T02:39:08.036Z,-0.78
2019-02-12T02:41:38.140Z,-0.79
2019-02-12T02:44:29.792Z,-0.80
2019-02-12T02:46:59.502Z,-0.81
2019-02-12T02:49:29.177Z,-0.86
2019-02-12T02:51:58.700Z,-0.84
2019-02-12T02:54:28.503Z,-0.87
2019-02-12T02:56:58.419Z,-0.88
2019-02-12T03:02:18.916Z,-0.91
2019-02-12T03:04:48.142Z,-0.93
2019-02-12T03:07:19.473Z,-0.95
2019-02-12T03:09:49.603Z,-0.95
2019-02-12T03:15:10.424Z,-0.98
2019-02-12T03:20:29.754Z,-1.02
2019-02-12T03:22:59.616Z,-1.03
2019-02-12T03:25:32.373Z,-1.03
2019-02-12T03:28:02.149Z,-1.03
2019-02-12T03:30:32.348Z,-1.02
2019-02-12T03:33:01.731Z,-1.03
2019-02-12T03:35:58.632Z,-1.05
2019-02-12T03:38:31.892Z,-1.09
2019-02-12T03:41:13.378Z,-1.15
2019-02-12T03:43:43.527Z,-1.16
2019-02-12T03:46:32.229Z,-1.17
2019-02-12T03:49:01.811Z,-1.18
2019-02-12T03:51:31.459Z,-1.20
2019-02-12T03:56:56.227Z,-1.23
2019-02-12T03:59:45.036Z,-1.25
2019-02-12T04:02:14.840Z,-1.29
2019-02-12T04:04:45.013Z,-1.33
2019-02-12T04:07:15.341Z,-1.35
2019-02-12T04:09:45.456Z,-1.37
2019-02-12T04:15:24.246Z,-1.42
2019-02-12T04:17:54.259Z,-1.44
2019-02-12T04:20:30.659Z,-1.48
2019-02-12T04:23:00.445Z,-1.49
2019-02-12T04:25:30.149Z,-1.49
2019-02-12T04:30:35.262Z,-1.50
2019-02-12T04:33:06.395Z,-1.50
2019-02-12T04:35:36.124Z,-1.53
2019-02-12T04:38:07.999Z,-1.54
2019-02-12T04:40:40.731Z,-1.54
2019-02-12T04:43:24.675Z,-1.52
2019-02-12T04:45:56.868Z,-1.52
2019-02-12T04:48:49.897Z,-1.50
2019-02-12T04:51:22.459Z,-1.50
2019-02-12T04:53:52.341Z,-1.50
2019-02-12T04:56:42.730Z,-1.49
2019-02-12T04:59:24.479Z,-1.50
2019-02-12T05:01:54.556Z,-1.53
2019-02-12T05:04:24.134Z,-1.54
2019-02-12T05:06:55.057Z,-1.55
2019-02-12T05:12:04.375Z,-1.58
2019-02-12T05:17:14.899Z,-1.62
2019-02-12T05:20:01.744Z,-1.64
2019-02-12T05:25:13.648Z,-1.69
2019-02-12T05:27:44.049Z,-1.70
2019-02-12T05:36:49.281Z,-1.78
2019-02-12T05:42:14.520Z,-1.81
2019-02-12T05:44:44.472Z,-1.81
2019-02-12T05:47:16.268Z,-1.84
2019-02-12T05:49:48.173Z,-1.83
2019-02-12T05:52:18.201Z,-1.85
2019-02-12T05:54:48.520Z,-1.87
2019-02-12T05:57:32.722Z,-1.87
2019-02-12T06:02:30.517Z,-1.90
2019-02-12T06:05:00.546Z,-1.91
2019-02-12T06:07:44.564Z,-1.92
2019-02-12T06:10:03.889Z,-1.95
2019-02-12T06:12:36.636Z,-1.98
2019-02-12T06:15:06.675Z,-2.02
2019-02-12T06:17:39.797Z,-2.03
2019-02-12T06:20:30.375Z,-2.05
2019-02-12T06:23:03.822Z,-2.04
2019-02-12T06:25:33.040Z,-2.05
2019-02-12T06:28:16.086Z,-2.06
2019-02-12T06:36:15.320Z,-2.05
2019-02-12T06:39:03.359Z,-2.05
2019-02-12T06:41:32.896Z,-2.06
2019-02-12T06:44:04.835Z,-2.05
2019-02-12T06:46:34.877Z,-2.03
2019-02-12T06:49:23.584Z,-2.03
2019-02-12T06:51:53.554Z,-2.01
2019-02-12T06:54:23.286Z,-2.02
2019-02-12T06:56:53.462Z,-1.99
2019-02-12T06:59:23.019Z,-1.96
2019-02-12T07:02:30.718Z,-1.92
2019-02-12T07:05:00.379Z,-1.89
2019-02-12T07:08:08.058Z,-1.86
2019-02-12T07:10:39.558Z,-1.82
2019-02-12T07:13:47.213Z,-1.75
2019-02-12T07:16:54.569Z,-1.70
2019-02-12T07:20:02.021Z,-1.64
2019-02-12T07:22:56.788Z,-1.58
2019-02-12T07:29:15.241Z,-1.25
2019-02-12T07:31:56.755Z,-1.20
2019-02-12T07:35:04.174Z,-1.15
2019-02-12T07:38:14.720Z,-0.99
2019-02-12T07:41:23.118Z,-0.81
2019-02-12T07:47:53.417Z,-0.82
2019-02-12T07:51:00.981Z,-0.86
2019-02-12T07:54:09.174Z,-0.87
2019-02-12T07:57:19.067Z,-0.84
2019-02-12T08:00:20.520Z,-0.80
2019-02-12T08:06:31.666Z,-0.70
2019-02-12T08:09:39.030Z,-0.65
2019-02-12T08:12:46.261Z,-0.58
2019-02-12T08:15:40.397Z,-0.46
2019-02-12T08:21:38.273Z,-0.39
2019-02-12T08:24:45.655Z,-0.29
2019-02-12T08:27:26.606Z,-0.16
2019-02-12T08:30:25.136Z,-0.16
2019-02-12T08:33:16.961Z,-0.11
2019-02-12T08:36:24.706Z,-0.07
2019-02-12T08:39:19.398Z,-0.02
2019-02-12T08:42:26.944Z,0.03
2019-02-12T08:45:37.739Z,0.10
2019-02-12T08:48:45.512Z,0.19
2019-02-12T08:51:26.957Z,0.27
2019-02-12T08:54:29.137Z,0.27
2019-02-12T08:57:24.501Z,0.39
2019-02-12T09:00:08.645Z,0.49
2019-02-12T09:03:32.070Z,0.56
2019-02-12T09:06:30.119Z,0.62
2019-02-12T09:09:26.777Z,0.73
2019-02-12T09:12:20.991Z,0.82
2019-02-12T09:15:28.486Z,0.93
2019-02-12T09:18:35.953Z,0.93
2019-02-12T09:21:27.858Z,1.04
2019-02-12T09:24:35.242Z,1.18
2019-02-12T09:27:45.617Z,1.19
2019-02-12T09:30:57.354Z,1.26
2019-02-12T09:33:38.885Z,1.32
2019-02-12T09:36:30.725Z,1.35
2019-02-12T09:39:24.571Z,1.40
2019-02-12T09:42:05.458Z,1.47
2019-02-12T09:45:08.659Z,1.49
2019-02-12T09:48:16.109Z,1.61
2019-02-12T09:51:23.506Z,1.61
2019-02-12T09:54:31.225Z,1.63
2019-02-12T09:57:23.395Z,1.70
2019-02-12T10:00:14.572Z,1.75
2019-02-12T10:03:17.372Z,1.79
2019-02-12T10:06:09.115Z,1.83
2019-02-12T10:09:16.562Z,1.93
2019-02-12T10:12:23.963Z,1.95
2019-02-12T10:15:34.172Z,2.02
2019-02-12T10:18:25.992Z,2.12
2019-02-12T10:21:22.717Z,2.12
2019-02-12T10:24:19.669Z,2.05
2019-02-12T10:26:57.237Z,2.13
2019-02-12T10:30:04.867Z,2.12
2019-02-12T10:32:32.469Z,2.15
2019-02-12T10:35:02.498Z,2.28
2019-02-12T10:37:31.888Z,2.30
2019-02-12T10:40:01.366Z,2.35
2019-02-12T10:42:30.778Z,2.42
2019-02-12T10:45:00.374Z,2.44
2019-02-12T10:50:04.429Z,2.55
2019-02-12T10:52:33.991Z,2.60
2019-02-12T10:55:03.379Z,2.60
2019-02-12T10:57:32.803Z,2.65
2019-02-12T11:00:05.272Z,2.64
2019-02-12T11:02:34.736Z,2.63
2019-02-12T11:05:04.403Z,2.66
2019-02-12T11:07:33.811Z,2.67
2019-02-12T11:10:04.646Z,2.72
2019-02-12T11:12:34.063Z,2.73
2019-02-12T11:15:03.594Z,2.76
2019-02-12T11:17:33.051Z,2.80
2019-02-12T11:20:02.477Z,2.81
2019-02-12T11:22:31.922Z,2.82
2019-02-12T11:25:01.343Z,2.79
2019-02-12T11:27:30.805Z,2.78
2019-02-12T11:30:00.878Z,2.82
2019-02-12T11:32:30.350Z,2.81
2019-02-12T11:35:11.483Z,2.84
2019-02-12T11:37:52.286Z,2.86
2019-02-12T11:40:21.915Z,2.81
2019-02-12T11:43:10.418Z,2.81
2019-02-12T11:48:35.858Z,2.88
2019-02-12T11:51:05.481Z,2.93
2019-02-12T11:53:34.898Z,2.98
2019-02-12T11:56:04.343Z,3.01
2019-02-12T11:58:33.736Z,3.02
2019-02-12T12:01:05.470Z,3.06
2019-02-12T12:06:23.560Z,3.11
2019-02-12T12:08:53.064Z,3.11
2019-02-12T12:11:23.716Z,3.13
2019-02-12T12:16:28.419Z,3.11
2019-02-12T12:19:08.923Z,3.09
2019-02-12T12:24:24.072Z,3.08
2019-02-12T12:26:53.570Z,3.07
2019-02-12T12:29:22.979Z,3.10
2019-02-12T12:31:52.421Z,3.15
2019-02-12T12:34:24.092Z,3.14
2019-02-12T12:36:53.534Z,3.11
2019-02-12T12:39:22.975Z,3.12
2019-02-12T12:41:52.397Z,3.14
2019-02-12T12:44:21.909Z,3.21
2019-02-12T12:46:51.457Z,3.23
2019-02-12T12:49:23.374Z,3.26
2019-02-12T12:51:52.778Z,3.27
2019-02-12T12:54:41.331Z,3.18
2019-02-12T12:57:10.770Z,3.11
2019-02-12T12:59:40.180Z,3.08
2019-02-12T13:04:45.126Z,3.06
2019-02-12T13:07:14.583Z,3.04
2019-02-12T13:09:44.171Z,3.02
2019-02-12T13:12:33.973Z,3.03
2019-02-12T13:15:05.601Z,3.04
2019-02-12T13:17:35.466Z,3.05
2019-02-12T13:20:16.253Z,3.05
2019-02-12T13:22:45.674Z,3.07
2019-02-12T13:25:15.231Z,3.09
2019-02-12T13:27:46.656Z,3.12
2019-02-12T13:30:16.860Z,3.12
2019-02-12T13:35:34.994Z,3.15
2019-02-12T13:38:04.414Z,3.20
2019-02-12T13:40:33.825Z,3.24
2019-02-12T13:45:38.448Z,3.32
2019-02-12T13:48:08.187Z,3.38
2019-02-12T13:50:37.613Z,3.40
2019-02-12T13:53:07.062Z,3.40
2019-02-12T13:58:32.417Z,3.45
2019-02-12T14:01:01.849Z,3.45
2019-02-12T14:03:31.464Z,3.45
2019-02-12T14:06:00.953Z,3.45
2019-02-12T14:08:30.408Z,3.43
2019-02-12T14:10:59.949Z,3.39
2019-02-12T14:13:29.365Z,3.34
2019-02-12T14:15:58.775Z,3.29
2019-02-12T14:18:28.292Z,3.27
2019-02-12T14:20:57.951Z,3.21
2019-02-12T14:23:27.527Z,3.16
2019-02-12T14:25:56.864Z,3.13
2019-02-12T14:28:26.355Z,3.11
2019-02-12T14:30:55.765Z,3.05
2019-02-12T14:33:25.162Z,2.97
2019-02-12T14:35:56.864Z,2.92
2019-02-12T14:38:26.261Z,2.87
2019-02-12T14:40:55.737Z,2.82
2019-02-12T14:43:44.356Z,2.79
2019-02-12T14:46:14.135Z,2.70
2019-02-12T14:48:43.641Z,2.66
2019-02-12T14:51:14.240Z,2.61
2019-02-12T14:53:43.899Z,2.57
2019-02-12T14:56:13.342Z,2.52
2019-02-12T14:58:45.376Z,2.46
2019-02-12T15:01:16.858Z,2.44
2019-02-12T15:03:46.253Z,2.41
2019-02-12T15:06:15.732Z,2.38
2019-02-12T15:08:45.310Z,2.31
2019-02-12T15:11:23.472Z,2.29
2019-02-12T15:13:52.873Z,2.29
2019-02-12T15:16:22.624Z,2.14
2019-02-12T15:21:28.082Z,1.99
2019-02-12T15:27:22.097Z,1.96
2019-02-12T15:30:12.105Z,1.92
2019-02-12T15:32:54.709Z,1.92
2019-02-12T15:35:24.393Z,1.86
2019-02-12T15:37:53.817Z,1.76
2019-02-12T15:40:23.387Z,1.70
2019-02-12T15:42:52.888Z,1.70
2019-02-12T15:45:41.353Z,1.65
2019-02-12T15:48:10.753Z,1.60
2019-02-12T15:50:59.226Z,1.52
2019-02-12T15:53:47.724Z,1.42
2019-02-12T15:56:17.247Z,1.43
2019-02-12T15:58:46.750Z,1.43
2019-02-12T16:01:16.167Z,1.41
2019-02-12T16:03:45.798Z,1.38
2019-02-12T16:06:17.167Z,1.35
2019-02-12T16:08:46.663Z,1.30
2019-02-12T16:11:17.076Z,1.31
2019-02-12T16:16:36.021Z,1.27
2019-02-12T16:19:06.256Z,1.27
2019-02-12T16:21:36.595Z,1.27
2019-02-12T16:24:06.739Z,1.25
2019-02-12T16:26:36.154Z,1.23
2019-02-12T16:29:21.975Z,1.23
2019-02-12T16:31:51.796Z,1.21
2019-02-12T16:34:37.421Z,1.20
2019-02-12T16:36:55.140Z,1.20
2019-02-12T16:39:25.545Z,1.15
2019-02-12T16:42:14.358Z,1.12
2019-02-12T16:44:55.125Z,1.12
2019-02-12T16:47:43.576Z,1.12
2019-02-12T16:50:13.405Z,1.10
2019-02-12T16:53:02.025Z,1.06
2019-02-12T16:58:16.698Z,1.03
2019-02-12T17:01:05.623Z,1.10
2019-02-12T17:03:46.434Z,1.08
2019-02-12T17:06:16.533Z,1.10
2019-02-12T17:08:46.243Z,1.07
2019-02-12T17:11:15.770Z,1.07
2019-02-12T17:14:04.319Z,1.14
2019-02-12T17:16:33.820Z,1.15
2019-02-12T17:19:22.305Z,1.21
2019-02-12T17:22:10.794Z,1.25
2019-02-12T17:24:40.298Z,1.25
2019-02-12T17:27:09.664Z,1.25
2019-02-12T17:32:14.430Z,1.43
2019-02-12T17:34:44.200Z,1.43
2019-02-12T17:37:13.859Z,1.51
2019-02-12T17:39:43.453Z,1.51
2019-02-12T17:42:16.819Z,1.56
2019-02-12T17:45:06.055Z,1.64
2019-02-12T17:47:54.542Z,1.69
2019-02-12T17:50:23.951Z,1.69
2019-02-12T17:52:53.528Z,1.69
2019-02-12T17:57:57.885Z,1.75
2019-02-12T18:03:25.595Z,1.85
2019-02-12T18:05:55.033Z,1.85
2019-02-12T18:08:35.761Z,1.93
2019-02-12T18:11:24.803Z,1.93
2019-02-12T18:16:29.501Z,2.00
2019-02-12T18:18:58.935Z,2.00
2019-02-12T18:21:28.476Z,2.01
2019-02-12T18:24:17.078Z,2.10
2019-02-12T18:26:46.506Z,2.10
2019-02-12T18:29:18.797Z,2.14
2019-02-12T18:32:02.463Z,2.19
2019-02-12T18:37:09.800Z,2.23
2019-02-12T18:39:39.216Z,2.27
2019-02-12T18:42:08.694Z,2.30
2019-02-12T18:44:38.108Z,2.34
2019-02-12T18:47:27.122Z,2.39
2019-02-12T18:50:15.475Z,2.44
2019-02-12T18:55:35.151Z,2.45
2019-02-12T18:58:04.686Z,2.56
2019-02-12T19:00:34.184Z,2.62
2019-02-12T19:03:03.596Z,2.67
2019-02-12T19:05:34.265Z,2.72
2019-02-12T19:08:03.687Z,2.74
2019-02-12T19:10:33.167Z,2.77
2019-02-12T19:13:02.830Z,2.81
2019-02-12T19:15:32.266Z,2.83
2019-02-12T19:18:22.526Z,2.85
2019-02-12T19:20:52.445Z,2.89
2019-02-12T19:23:22.141Z,2.91
2019-02-12T19:26:06.543Z,2.94
2019-02-12T19:28:36.540Z,2.96
2019-02-12T19:31:07.533Z,2.97
2019-02-12T19:33:36.924Z,2.97
2019-02-12T19:39:09.715Z,2.90
2019-02-12T19:41:39.108Z,2.87
2019-02-12T19:44:08.527Z,2.91
2019-02-12T19:46:38.134Z,2.90
2019-02-12T19:49:07.538Z,2.91
2019-02-12T19:51:36.936Z,2.90
2019-02-12T19:54:06.392Z,2.95
2019-02-12T19:56:35.803Z,2.97
2019-02-12T19:59:05.269Z,2.93
2019-02-12T20:01:34.749Z,2.94
2019-02-12T20:04:04.224Z,2.95
2019-02-12T20:06:33.605Z,2.95
2019-02-12T20:09:04.838Z,2.94
2019-02-12T20:11:53.088Z,2.94
2019-02-12T20:14:33.447Z,2.95
2019-02-12T20:17:03.488Z,2.92
2019-02-12T20:19:32.904Z,2.89
2019-02-12T20:22:10.935Z,2.88
2019-02-12T20:24:40.353Z,2.85
2019-02-12T20:27:09.856Z,2.79
2019-02-12T20:29:39.281Z,2.77
2019-02-12T20:32:08.772Z,2.72
2019-02-12T20:34:38.144Z,2.69
2019-02-12T20:39:50.898Z,2.62
2019-02-12T20:42:39.684Z,2.63
2019-02-12T20:48:06.065Z,2.61
2019-02-12T20:50:35.487Z,2.60
2019-02-12T20:53:28.887Z,2.58
2019-02-12T20:55:59.050Z,2.59
2019-02-12T20:58:28.457Z,2.53
2019-02-12T21:00:57.931Z,2.52
2019-02-12T21:03:27.456Z,2.52
2019-02-12T21:05:56.862Z,2.53
2019-02-12T21:08:26.290Z,2.54
2019-02-12T21:10:55.725Z,2.56
2019-02-12T21:13:25.124Z,2.55
2019-02-12T21:15:54.765Z,2.51
2019-02-12T21:18:24.209Z,2.48
2019-02-12T21:20:53.692Z,2.47
2019-02-12T21:23:23.328Z,2.45
2019-02-12T21:25:52.921Z,2.43
2019-02-12T21:28:22.317Z,2.43
2019-02-12T21:30:53.458Z,2.40
2019-02-12T21:33:25.041Z,2.40
2019-02-12T21:35:54.467Z,2.40
2019-02-12T21:38:23.922Z,2.38
2019-02-12T21:40:53.394Z,2.35
2019-02-12T21:43:26.103Z,2.33
2019-02-12T21:45:55.607Z,2.28
2019-02-12T21:48:25.018Z,2.26
2019-02-12T21:50:54.447Z,2.25
2019-02-12T21:56:01.982Z,2.21
2019-02-12T21:58:31.845Z,2.21
2019-02-12T22:01:01.243Z,2.22
2019-02-12T22:03:30.649Z,2.25
2019-02-12T22:08:35.412Z,2.23
2019-02-12T22:13:55.765Z,2.17
2019-02-12T22:16:25.181Z,2.20
2019-02-12T22:18:54.887Z,2.21
2019-02-12T22:21:43.207Z,2.17
2019-02-12T22:24:32.640Z,2.12
2019-02-12T22:27:02.070Z,2.12
2019-02-12T22:29:31.487Z,2.12
2019-02-12T22:32:20.403Z,2.20
2019-02-12T22:34:52.825Z,2.20
2019-02-12T22:37:22.407Z,2.23
2019-02-12T22:42:27.473Z,2.29
2019-02-12T22:44:57.003Z,2.32
2019-02-12T22:47:26.401Z,2.31
2019-02-12T22:49:55.859Z,2.32
2019-02-12T22:55:00.499Z,2.38
2019-02-12T22:57:30.055Z,2.41
2019-02-12T23:00:12.801Z,2.42
2019-02-12T23:02:42.376Z,2.45
2019-02-12T23:05:11.761Z,2.47
2019-02-12T23:07:41.182Z,2.49
2019-02-12T23:10:10.763Z,2.50
2019-02-12T23:12:52.832Z,2.52
2019-02-12T23:15:22.320Z,2.55
2019-02-12T23:17:51.954Z,2.59
2019-02-12T23:20:21.460Z,2.59
2019-02-12T23:22:51.221Z,2.61
2019-02-12T23:25:20.841Z,2.63
2019-02-12T23:27:57.193Z,2.64
2019-02-12T23:30:21.787Z,2.67
2019-02-12T23:35:48.323Z,2.76
2019-02-12T23:41:17.417Z,2.83
2019-02-12T23:43:53.442Z,2.86
2019-02-12T23:46:23.031Z,2.89
2019-02-12T23:48:52.475Z,2.93
2019-02-12T23:51:41.457Z,2.95
2019-02-12T23:54:10.878Z,3.00
2019-02-12T23:56:46.070Z,2.99
2019-02-12T23:59:15.496Z,3.00
